Time;durP1;ratioP1;P1;durP2;ratioP2;P2;SDS_P1;SDS_P2;PMS_P1;PMS_P2;Temp;Humidity;BMP_temperature;BMP_pressure;BME280_temperature;BME280_humidity;BME280_pressure;Samples;Min_cycle;Max_cycle;Signal;HPM_P1;HPM_P2
2023/09/14 00:02:27;;;;;;;7.95;2.20;;;13.50;99.90;;;;;;4991272;28;20167;-71
2023/09/14 00:05:14;;;;;;;13.20;2.58;;;13.50;99.90;;;;;;5018580;28;20076;-71
2023/09/14 00:08:02;;;;;;;9.20;2.50;;;13.50;99.90;;;;;;5026250;28;20556;-71
2023/09/14 00:10:55;;;;;;;13.30;2.78;;;13.50;99.90;;;;;;5010867;28;20052;-71
2023/09/14 00:13:41;;;;;;;12.73;2.60;;;13.50;99.90;;;;;;4999336;28;20033;-71
2023/09/14 00:16:28;;;;;;;11.10;3.38;;;13.40;99.90;;;;;;4998067;28;20129;-72
2023/09/14 00:19:14;;;;;;;6.23;2.07;;;13.50;99.90;;;;;;4994673;28;20434;-71
2023/09/14 00:22:00;;;;;;;12.05;2.80;;;13.50;99.90;;;;;;4994264;28;20038;-72
2023/09/14 00:24:46;;;;;;;11.95;2.63;;;13.40;99.90;;;;;;4984144;28;20046;-72
2023/09/14 00:27:32;;;;;;;8.95;2.22;;;13.50;99.90;;;;;;4979494;28;20208;-72
2023/09/14 00:30:20;;;;;;;13.13;2.88;;;13.50;99.90;;;;;;4973152;28;20043;-72
2023/09/14 00:33:06;;;;;;;10.18;3.15;;;13.50;99.90;;;;;;4981563;28;20110;-72
2023/09/14 00:35:52;;;;;;;6.65;2.72;;;13.50;99.90;;;;;;4988086;28;20049;-71
2023/09/14 00:38:38;;;;;;;12.93;2.78;;;13.50;99.90;;;;;;4967893;28;20053;-72
2023/09/14 00:41:24;;;;;;;11.00;2.83;;;13.50;99.90;;;;;;5006850;28;20043;-72
2023/09/14 00:44:10;;;;;;;17.20;3.35;;;13.40;99.90;;;;;;5004232;28;20045;-72
2023/09/14 00:46:56;;;;;;;10.98;2.80;;;13.30;99.90;;;;;;4979536;28;20046;-72
2023/09/14 00:49:42;;;;;;;12.57;2.65;;;13.30;99.90;;;;;;4988677;28;20039;-71
2023/09/14 00:52:28;;;;;;;9.50;2.60;;;13.20;99.90;;;;;;5005384;28;20035;-72
2023/09/14 00:55:17;;;;;;;9.90;2.63;;;13.20;99.90;;;;;;5011224;28;20064;-71
2023/09/14 00:58:03;;;;;;;9.63;2.50;;;13.20;99.90;;;;;;4983507;28;20070;-72
2023/09/14 01:00:49;;;;;;;13.65;3.42;;;13.30;99.90;;;;;;4978952;28;20042;-73
2023/09/14 01:03:35;;;;;;;16.88;2.80;;;13.20;99.90;;;;;;4979650;28;20057;-71
2023/09/14 01:06:24;;;;;;;11.90;3.40;;;13.30;99.90;;;;;;5021073;28;20041;-72
2023/09/14 01:09:10;;;;;;;12.20;2.70;;;13.30;99.90;;;;;;4967405;28;20071;-72
2023/09/14 01:11:56;;;;;;;7.72;2.53;;;13.30;99.90;;;;;;4995782;28;20129;-72
2023/09/14 01:14:48;;;;;;;12.82;3.03;;;13.20;99.90;;;;;;4996014;28;20042;-72
2023/09/14 01:17:56;;;;;;;13.48;3.25;;;13.20;99.90;;;;;;5030517;28;20059;-72
2023/09/14 01:21:10;;;;;;;9.82;2.65;;;13.20;99.90;;;;;;5036910;28;20717;-72
2023/09/14 01:24:09;;;;;;;15.90;3.00;;;13.10;99.90;;;;;;5021631;28;20165;-72
2023/09/14 01:26:55;;;;;;;12.85;2.85;;;13.00;99.90;;;;;;5009727;28;20033;-72
2023/09/14 01:29:41;;;;;;;10.57;2.45;;;13.00;99.90;;;;;;5040944;28;20056;-72
2023/09/14 01:32:27;;;;;;;16.30;2.95;;;13.10;99.90;;;;;;5021655;28;20127;-71
2023/09/14 01:35:13;;;;;;;10.48;2.60;;;13.00;99.90;;;;;;5038243;28;20037;-72
2023/09/14 01:37:59;;;;;;;9.38;2.38;;;13.10;99.90;;;;;;5033975;28;20385;-71
2023/09/14 01:40:45;;;;;;;12.95;2.80;;;13.10;99.90;;;;;;5037511;28;20075;-71
2023/09/14 01:43:31;;;;;;;10.60;2.45;;;13.10;99.90;;;;;;5010517;28;20029;-71
2023/09/14 01:46:17;;;;;;;13.60;2.53;;;13.00;99.90;;;;;;5036622;28;20040;-71
2023/09/14 01:49:04;;;;;;;16.48;2.70;;;13.00;99.90;;;;;;5026973;28;20041;-71
2023/09/14 01:51:51;;;;;;;10.38;2.72;;;13.10;99.90;;;;;;5048303;28;20040;-71
2023/09/14 01:54:37;;;;;;;10.77;2.50;;;13.00;99.90;;;;;;4998649;28;20470;-71
2023/09/14 01:57:23;;;;;;;10.60;2.95;;;13.00;99.90;;;;;;5020516;28;20084;-71
2023/09/14 02:00:09;;;;;;;14.43;3.10;;;13.00;99.90;;;;;;5022185;28;20036;-72
2023/09/14 02:02:57;;;;;;;12.70;2.65;;;12.90;99.90;;;;;;5026645;28;20080;-71
2023/09/14 02:05:43;;;;;;;8.02;2.72;;;12.90;99.90;;;;;;5047293;28;20114;-71
2023/09/14 02:08:30;;;;;;;10.20;3.03;;;12.80;99.90;;;;;;5044360;28;20045;-71
2023/09/14 02:11:16;;;;;;;6.90;2.35;;;12.80;99.90;;;;;;5017307;28;20060;-71
2023/09/14 02:14:02;;;;;;;11.13;2.53;;;12.80;99.90;;;;;;5019567;28;20124;-71
2023/09/14 02:16:48;;;;;;;9.77;2.42;;;12.80;99.90;;;;;;4997845;28;20045;-72
2023/09/14 02:19:34;;;;;;;13.07;2.80;;;12.70;99.90;;;;;;5032302;28;20045;-72
2023/09/14 02:22:20;;;;;;;12.77;3.17;;;12.70;99.90;;;;;;5038513;28;20044;-71
2023/09/14 02:25:06;;;;;;;11.27;2.80;;;12.70;99.90;;;;;;5023304;28;20075;-72
2023/09/14 02:27:53;;;;;;;10.52;2.90;;;12.60;99.90;;;;;;5023731;28;20041;-72
2023/09/14 02:30:40;;;;;;;12.02;3.40;;;12.60;99.90;;;;;;5025320;28;20072;-72
2023/09/14 02:33:26;;;;;;;8.95;2.90;;;12.60;99.90;;;;;;5032672;28;20388;-72
2023/09/14 02:36:12;;;;;;;11.65;2.42;;;12.60;99.90;;;;;;4990813;28;20091;-72
2023/09/14 02:38:58;;;;;;;12.10;3.38;;;12.60;99.90;;;;;;5027985;28;20037;-72
2023/09/14 02:41:44;;;;;;;10.60;2.78;;;12.60;99.90;;;;;;5017794;28;20045;-72
2023/09/14 02:44:30;;;;;;;8.20;2.63;;;12.60;99.90;;;;;;5030254;28;20619;-71
2023/09/14 02:47:16;;;;;;;13.10;3.22;;;12.50;99.90;;;;;;5018110;28;20045;-71
2023/09/14 02:50:02;;;;;;;11.63;3.22;;;12.50;99.90;;;;;;5003839;28;20056;-71
2023/09/14 02:52:48;;;;;;;10.93;2.83;;;12.50;99.90;;;;;;5015782;28;20115;-72
2023/09/14 02:55:34;;;;;;;9.95;2.85;;;12.50;99.90;;;;;;4996968;28;20383;-72
2023/09/14 02:58:20;;;;;;;11.18;2.78;;;12.50;99.90;;;;;;5020310;28;20552;-72
2023/09/14 03:01:08;;;;;;;12.02;2.80;;;12.50;99.90;;;;;;5002614;28;20060;-72
2023/09/14 03:03:54;;;;;;;9.35;2.85;;;12.40;99.90;;;;;;5001762;28;20374;-71
2023/09/14 03:06:41;;;;;;;7.25;2.40;;;12.40;99.90;;;;;;5031463;28;20159;-72
2023/09/14 03:09:27;;;;;;;14.10;3.67;;;12.50;99.90;;;;;;5028717;28;20099;-72
2023/09/14 03:12:13;;;;;;;12.43;2.97;;;12.50;99.90;;;;;;5036754;28;20056;-72
2023/09/14 03:14:59;;;;;;;11.52;2.40;;;12.50;99.90;;;;;;5021600;28;20056;-72
2023/09/14 03:17:45;;;;;;;11.05;2.63;;;12.60;99.90;;;;;;5039906;28;20049;-72
2023/09/14 03:20:31;;;;;;;9.73;2.70;;;12.60;99.90;;;;;;5048908;28;20414;-72
2023/09/14 03:23:17;;;;;;;7.68;2.22;;;12.50;99.90;;;;;;5037803;28;20041;-72
2023/09/14 03:26:03;;;;;;;10.43;2.08;;;12.50;99.90;;;;;;4998070;28;20046;-72
2023/09/14 03:28:50;;;;;;;10.88;2.47;;;12.60;99.90;;;;;;4997158;28;20042;-72
2023/09/14 03:31:36;;;;;;;7.97;2.20;;;12.50;99.90;;;;;;5000719;28;20037;-72
2023/09/14 03:34:23;;;;;;;10.02;2.53;;;12.50;99.90;;;;;;5017418;28;20061;-72
2023/09/14 03:37:09;;;;;;;11.15;2.70;;;12.40;99.90;;;;;;5022048;28;20041;-71
2023/09/14 03:39:55;;;;;;;14.55;4.22;;;12.40;99.90;;;;;;5000795;28;20041;-71
2023/09/14 03:42:41;;;;;;;14.18;3.60;;;12.30;99.90;;;;;;5022351;28;20040;-72
2023/09/14 03:45:28;;;;;;;15.57;4.15;;;12.30;99.90;;;;;;5042127;28;20036;-72
2023/09/14 03:48:14;;;;;;;10.73;3.07;;;12.20;99.90;;;;;;5018988;28;20040;-71
2023/09/14 03:51:01;;;;;;;8.13;2.42;;;12.20;99.90;;;;;;5042280;28;20060;-72
2023/09/14 03:53:46;;;;;;;10.77;2.90;;;12.20;99.90;;;;;;5000215;28;20563;-72
2023/09/14 03:56:32;;;;;;;6.20;2.13;;;12.10;99.90;;;;;;4997044;28;20124;-72
2023/09/14 03:59:19;;;;;;;6.05;2.13;;;12.00;99.90;;;;;;5000172;28;20176;-72
2023/09/14 04:02:04;;;;;;;10.13;2.50;;;12.00;99.90;;;;;;4980854;28;20067;-71
2023/09/14 04:04:50;;;;;;;10.93;2.83;;;12.00;99.90;;;;;;5024880;28;20098;-72
2023/09/14 04:07:36;;;;;;;12.65;3.50;;;12.00;99.90;;;;;;5018885;28;20453;-72
2023/09/14 04:10:22;;;;;;;10.43;2.75;;;12.00;99.90;;;;;;5022419;28;20053;-71
2023/09/14 04:13:27;;;;;;;12.13;2.70;;;11.90;99.90;;;;;;4998315;28;20515;-71
2023/09/14 04:16:13;;;;;;;12.80;2.90;;;11.80;99.90;;;;;;5014158;28;20506;-71
2023/09/14 04:19:02;;;;;;;13.52;3.35;;;11.80;99.90;;;;;;5007698;28;20038;-71
2023/09/14 04:21:48;;;;;;;11.05;2.45;;;11.80;99.90;;;;;;5003867;28;20477;-71
2023/09/14 04:24:34;;;;;;;9.55;2.97;;;11.80;99.90;;;;;;5006884;28;20099;-72
2023/09/14 04:27:20;;;;;;;9.90;2.83;;;11.80;99.90;;;;;;5020775;28;20033;-72
2023/09/14 04:30:08;;;;;;;12.40;3.10;;;11.80;99.90;;;;;;5015116;28;20052;-72
2023/09/14 04:32:54;;;;;;;13.63;3.30;;;11.80;99.90;;;;;;5004418;28;20049;-72
2023/09/14 04:35:40;;;;;;;13.90;2.70;;;11.80;99.90;;;;;;5007424;28;20064;-72
2023/09/14 04:38:26;;;;;;;9.68;2.75;;;11.80;99.90;;;;;;5031821;28;20048;-72
2023/09/14 04:41:14;;;;;;;8.57;2.78;;;11.80;99.90;;;;;;5036690;28;20055;-72
2023/09/14 04:44:00;;;;;;;14.43;3.40;;;11.70;99.90;;;;;;5027050;28;20036;-71
2023/09/14 04:46:46;;;;;;;8.85;2.50;;;11.70;99.90;;;;;;5024524;28;20115;-72
2023/09/14 04:49:31;;;;;;;7.65;2.42;;;11.70;99.90;;;;;;5024121;28;20049;-72
2023/09/14 04:52:19;;;;;;;10.25;3.13;;;11.60;99.90;;;;;;5031593;28;20045;-72
2023/09/14 04:55:06;;;;;;;9.15;3.13;;;11.60;99.90;;;;;;5013796;28;20381;-71
2023/09/14 04:57:52;;;;;;;9.80;2.77;;;11.50;99.90;;;;;;4999338;28;20041;-72
2023/09/14 05:00:40;;;;;;;11.23;3.17;;;11.50;99.90;;;;;;4987720;28;20042;-72
2023/09/14 05:03:26;;;;;;;13.18;3.03;;;11.50;99.90;;;;;;5026401;28;20073;-72
2023/09/14 05:06:12;;;;;;;7.20;2.50;;;11.40;99.90;;;;;;5026312;28;20049;-72
2023/09/14 05:08:59;;;;;;;12.27;3.05;;;11.40;99.90;;;;;;5034699;28;20500;-72
2023/09/14 05:11:48;;;;;;;10.25;3.22;;;11.40;99.90;;;;;;4999170;28;20154;-72
2023/09/14 05:14:34;;;;;;;12.38;3.33;;;11.40;99.90;;;;;;5022812;28;20368;-75
2023/09/14 05:17:20;;;;;;;8.32;2.85;;;11.40;99.90;;;;;;5045719;28;20124;-75
2023/09/14 05:20:08;;;;;;;11.05;2.97;;;11.40;99.90;;;;;;5020468;28;20798;-75
2023/09/14 05:22:54;;;;;;;12.82;3.88;;;11.40;99.90;;;;;;5026807;28;20381;-76
2023/09/14 05:25:40;;;;;;;12.45;3.78;;;11.40;99.90;;;;;;5039723;28;20037;-75
2023/09/14 05:28:26;;;;;;;7.82;3.75;;;11.40;99.90;;;;;;5029349;28;20127;-75
2023/09/14 05:31:12;;;;;;;8.05;2.97;;;11.40;99.90;;;;;;4982674;28;20037;-75
2023/09/14 05:33:58;;;;;;;9.57;3.90;;;11.50;99.90;;;;;;5020094;28;20041;-75
2023/09/14 05:36:44;;;;;;;14.85;3.55;;;11.50;99.90;;;;;;5016189;28;20045;-75
2023/09/14 05:39:30;;;;;;;16.67;4.55;;;11.50;99.90;;;;;;5002201;28;20057;-75
2023/09/14 05:42:16;;;;;;;12.98;4.43;;;11.50;99.90;;;;;;5018902;28;20719;-75
2023/09/14 05:45:05;;;;;;;10.98;3.30;;;11.50;99.90;;;;;;5017257;28;20041;-75
2023/09/14 05:47:51;;;;;;;13.60;3.38;;;11.60;99.90;;;;;;5019188;28;20370;-75
2023/09/14 05:50:37;;;;;;;10.35;3.80;;;11.70;99.90;;;;;;4988510;28;20116;-75
2023/09/14 05:53:22;;;;;;;9.52;3.28;;;11.70;99.90;;;;;;5025197;28;20084;-75
2023/09/14 05:56:08;;;;;;;8.93;3.10;;;11.80;99.90;;;;;;4999694;28;20053;-75
2023/09/14 05:58:54;;;;;;;14.75;3.88;;;11.80;99.90;;;;;;5010923;28;20049;-74
2023/09/14 06:01:40;;;;;;;8.93;2.70;;;11.80;99.90;;;;;;5018418;28;20056;-75
2023/09/14 06:04:27;;;;;;;13.45;3.10;;;11.80;99.90;;;;;;4996858;28;20045;-75
2023/09/14 06:07:14;;;;;;;11.40;2.97;;;11.80;99.90;;;;;;5015090;28;20041;-75
2023/09/14 06:10:02;;;;;;;16.70;3.78;;;11.90;99.90;;;;;;5003328;28;20069;-75
2023/09/14 06:12:50;;;;;;;10.35;3.13;;;12.00;99.90;;;;;;5005672;28;20040;-75
2023/09/14 06:15:36;;;;;;;12.20;3.97;;;12.00;99.90;;;;;;5029764;28;20053;-75
2023/09/14 06:18:22;;;;;;;12.02;3.40;;;12.10;99.90;;;;;;5014673;28;20049;-75
2023/09/14 06:21:08;;;;;;;13.68;3.80;;;12.00;99.90;;;;;;5007135;28;20037;-75
2023/09/14 06:23:54;;;;;;;12.57;3.90;;;12.10;99.90;;;;;;5037916;28;20045;-78
2023/09/14 06:26:39;;;;;;;13.80;3.70;;;12.10;99.90;;;;;;5023720;28;20034;-75
2023/09/14 06:29:25;;;;;;;15.85;3.47;;;12.20;99.90;;;;;;4979305;28;20335;-75
2023/09/14 06:32:13;;;;;;;12.90;4.30;;;12.20;99.90;;;;;;5003735;28;20041;-74
2023/09/14 06:34:59;;;;;;;11.00;3.77;;;12.20;99.90;;;;;;5018831;28;20045;-74
2023/09/14 06:37:45;;;;;;;11.65;3.47;;;12.20;99.90;;;;;;5025204;28;20037;-75
2023/09/14 06:40:31;;;;;;;11.95;3.20;;;12.30;99.90;;;;;;5021031;28;20049;-75
2023/09/14 06:43:17;;;;;;;11.32;2.78;;;12.20;99.90;;;;;;5013103;28;20121;-75
2023/09/14 06:46:03;;;;;;;11.23;2.80;;;12.30;99.90;;;;;;5027847;28;20102;-75
2023/09/14 06:48:48;;;;;;;9.80;3.30;;;12.40;99.90;;;;;;5002271;28;20073;-75
2023/09/14 06:51:35;;;;;;;11.35;3.40;;;12.30;99.90;;;;;;4989316;28;20040;-75
2023/09/14 06:54:21;;;;;;;13.05;2.90;;;12.40;99.90;;;;;;5004928;28;20710;-74
2023/09/14 06:57:07;;;;;;;10.82;3.30;;;12.40;99.90;;;;;;5031651;28;20029;-75
2023/09/14 06:59:53;;;;;;;12.95;2.83;;;12.40;99.90;;;;;;4998272;28;20052;-75
2023/09/14 07:02:40;;;;;;;12.80;3.08;;;12.50;99.90;;;;;;5014849;28;20881;-75
2023/09/14 07:05:26;;;;;;;17.35;3.13;;;12.60;99.90;;;;;;5012288;28;20043;-75
2023/09/14 07:08:12;;;;;;;9.52;2.75;;;12.60;99.90;;;;;;5051415;28;20045;-74
2023/09/14 07:10:58;;;;;;;13.13;2.90;;;12.70;99.90;;;;;;5006237;28;20737;-75
2023/09/14 07:13:45;;;;;;;10.98;2.63;;;12.70;99.90;;;;;;5002528;28;20041;-74
2023/09/14 07:16:31;;;;;;;10.05;2.47;;;12.70;99.90;;;;;;5012530;28;20092;-75
2023/09/14 07:19:17;;;;;;;12.80;3.03;;;12.80;99.90;;;;;;5031383;28;20087;-74
2023/09/14 07:22:03;;;;;;;14.15;3.20;;;12.80;99.90;;;;;;5031566;28;20045;-75
2023/09/14 07:24:49;;;;;;;13.07;2.75;;;12.90;99.90;;;;;;5035802;28;20079;-75
2023/09/14 07:27:36;;;;;;;14.10;2.80;;;13.00;99.90;;;;;;5003353;28;20045;-75
2023/09/14 07:30:22;;;;;;;11.20;2.65;;;13.00;99.90;;;;;;5017516;28;20161;-75
2023/09/14 07:33:09;;;;;;;11.20;3.20;;;13.10;99.90;;;;;;5030551;28;20052;-75
2023/09/14 07:35:55;;;;;;;11.97;2.10;;;13.10;99.90;;;;;;5031150;28;20433;-75
2023/09/14 07:38:41;;;;;;;13.40;2.92;;;13.20;99.90;;;;;;5004853;28;20621;-75
2023/09/14 07:41:27;;;;;;;10.00;2.50;;;13.30;99.90;;;;;;5010823;28;20042;-75
2023/09/14 07:44:13;;;;;;;10.75;2.83;;;13.40;99.90;;;;;;5012844;28;20759;-75
2023/09/14 07:47:00;;;;;;;8.07;2.17;;;13.40;99.90;;;;;;5016208;28;20041;-75
2023/09/14 07:49:46;;;;;;;6.03;2.30;;;13.50;99.90;;;;;;5014447;28;20045;-75
2023/09/14 07:52:32;;;;;;;7.90;2.17;;;13.60;99.90;;;;;;5019182;28;20038;-75
2023/09/14 07:55:18;;;;;;;7.53;2.00;;;13.60;99.90;;;;;;5030677;28;20128;-75
2023/09/14 07:58:06;;;;;;;8.80;1.83;;;13.60;99.90;;;;;;5029842;28;20028;-72
2023/09/14 08:00:52;;;;;;;10.15;2.50;;;13.70;99.90;;;;;;5024753;28;20040;-71
2023/09/14 08:03:38;;;;;;;10.38;1.80;;;13.80;99.90;;;;;;5011458;28;20045;-69
2023/09/14 08:06:24;;;;;;;9.18;2.00;;;13.80;99.90;;;;;;5014101;28;20566;-69
2023/09/14 08:09:10;;;;;;;10.85;2.38;;;13.80;99.90;;;;;;5044050;28;20058;-69
2023/09/14 08:11:57;;;;;;;8.93;1.80;;;13.90;99.90;;;;;;5035370;28;20099;-69
2023/09/14 08:14:44;;;;;;;20.13;2.63;;;14.00;99.90;;;;;;5010234;28;20493;-69
2023/09/14 08:17:30;;;;;;;11.27;2.10;;;14.10;99.90;;;;;;5006832;28;20062;-69
2023/09/14 08:20:16;;;;;;;7.18;1.80;;;14.10;99.90;;;;;;5029440;28;20047;-69
2023/09/14 08:23:04;;;;;;;7.15;1.92;;;14.20;99.90;;;;;;5042504;28;20040;-69
2023/09/14 08:25:50;;;;;;;13.65;2.95;;;14.20;99.90;;;;;;5042331;28;20045;-69
2023/09/14 08:28:36;;;;;;;6.15;1.73;;;14.20;99.90;;;;;;5016387;28;20052;-69
2023/09/14 08:31:22;;;;;;;11.48;2.25;;;14.20;99.90;;;;;;5026580;28;20045;-69
2023/09/14 08:34:08;;;;;;;7.03;1.77;;;14.30;99.90;;;;;;5014422;28;20045;-69
2023/09/14 08:36:53;;;;;;;8.93;1.80;;;14.40;99.90;;;;;;5030067;28;20493;-69
2023/09/14 08:39:39;;;;;;;6.55;1.90;;;14.50;99.90;;;;;;5000233;28;20120;-69
2023/09/14 08:42:25;;;;;;;10.63;1.58;;;14.60;99.90;;;;;;5022394;28;20473;-69
2023/09/14 08:45:13;;;;;;;5.50;1.25;;;14.60;99.90;;;;;;4997842;28;20073;-69
2023/09/14 08:48:02;;;;;;;8.02;1.88;;;14.70;99.90;;;;;;5013681;28;20485;-69
2023/09/14 08:50:49;;;;;;;6.78;1.48;;;14.70;99.90;;;;;;5028476;28;20045;-69
2023/09/14 08:53:36;;;;;;;7.38;2.25;;;14.80;99.90;;;;;;5011669;28;20092;-69
2023/09/14 08:56:22;;;;;;;5.60;1.40;;;14.80;99.90;;;;;;4993887;28;20105;-69
2023/09/14 08:59:11;;;;;;;6.43;1.40;;;14.80;99.90;;;;;;5019458;28;20314;-69
2023/09/14 09:01:57;;;;;;;9.30;1.70;;;14.90;99.90;;;;;;5008810;28;20056;-69
2023/09/14 09:04:43;;;;;;;8.95;1.65;;;14.80;99.90;;;;;;4998570;28;20148;-69
2023/09/14 09:07:30;;;;;;;7.72;1.50;;;14.90;99.90;;;;;;5026343;28;20072;-69
2023/09/14 09:10:23;;;;;;;7.65;1.58;;;15.00;99.90;;;;;;5030265;28;20041;-69
2023/09/14 09:13:09;;;;;;;7.20;1.38;;;15.00;99.90;;;;;;5003248;28;20064;-69
2023/09/14 09:15:56;;;;;;;9.35;1.63;;;15.00;99.90;;;;;;5022578;28;20793;-69
2023/09/14 09:19:02;;;;;;;4.18;1.35;;;15.10;99.90;;;;;;5023507;28;20045;-69
2023/09/14 09:21:50;;;;;;;5.72;1.35;;;15.30;99.90;;;;;;5018309;28;20072;-69
2023/09/14 09:24:38;;;;;;;5.80;1.10;;;15.40;99.90;;;;;;5006693;28;20666;-69
2023/09/14 09:27:25;;;;;;;6.88;1.42;;;15.40;99.90;;;;;;5025578;28;20045;-69
2023/09/14 09:30:12;;;;;;;7.07;1.10;;;15.40;99.90;;;;;;5036896;28;20077;-69
2023/09/14 09:32:58;;;;;;;5.88;1.25;;;15.50;99.90;;;;;;5042616;28;20044;-69
2023/09/14 09:35:43;;;;;;;9.05;1.42;;;15.50;99.90;;;;;;5043768;28;20041;-71
2023/09/14 09:38:30;;;;;;;7.18;1.50;;;15.80;99.90;;;;;;5020298;28;20553;-71
2023/09/14 09:41:16;;;;;;;11.60;1.45;;;16.00;99.90;;;;;;5022574;28;20045;-71
2023/09/14 09:44:11;;;;;;;6.20;1.42;;;16.20;99.90;;;;;;5007879;28;20164;-71
2023/09/14 09:46:57;;;;;;;4.88;1.20;;;16.30;99.90;;;;;;5034825;28;20140;-71
2023/09/14 09:49:43;;;;;;;5.68;1.40;;;16.60;99.90;;;;;;5028198;28;20049;-71
2023/09/14 09:52:32;;;;;;;6.68;1.48;;;16.80;99.90;;;;;;5013411;28;20881;-71
2023/09/14 09:55:26;;;;;;;6.30;1.63;;;16.90;99.90;;;;;;5021160;28;20033;-71
2023/09/14 09:58:16;;;;;;;8.38;1.52;;;17.10;99.90;;;;;;5013772;28;20103;-71
2023/09/14 10:01:03;;;;;;;10.80;1.17;;;17.00;99.90;;;;;;5024240;28;20045;-71
2023/09/14 10:03:48;;;;;;;8.10;1.08;;;16.90;99.90;;;;;;5033659;28;20059;-71
2023/09/14 10:06:35;;;;;;;5.30;0.95;;;17.00;99.80;;;;;;5033051;28;20042;-71
2023/09/14 10:09:22;;;;;;;6.70;1.10;;;17.00;99.90;;;;;;4993386;28;20041;-71
2023/09/14 10:12:08;;;;;;;6.88;1.45;;;17.30;99.90;;;;;;4989619;28;20041;-71
2023/09/14 10:14:54;;;;;;;3.78;1.02;;;17.50;99.60;;;;;;5010700;28;20064;-71
2023/09/14 10:17:40;;;;;;;5.63;1.30;;;17.60;99.10;;;;;;5017467;28;20044;-71
2023/09/14 10:20:26;;;;;;;7.15;1.20;;;17.60;97.10;;;;;;5033464;28;20051;-71
2023/09/14 10:23:12;;;;;;;4.88;1.80;;;17.80;99.50;;;;;;5018421;28;20484;-71
2023/09/14 10:25:58;;;;;;;6.47;1.10;;;18.00;99.70;;;;;;5014079;28;20071;-72
2023/09/14 10:28:46;;;;;;;4.68;1.00;;;18.20;99.90;;;;;;5022139;28;20476;-73
2023/09/14 10:31:33;;;;;;;5.78;1.05;;;18.30;99.90;;;;;;4989538;28;20123;-71
2023/09/14 10:34:19;;;;;;;4.32;1.05;;;18.20;98.60;;;;;;5048387;28;20087;-70
2023/09/14 10:37:05;;;;;;;4.50;1.40;;;17.90;97.80;;;;;;5046229;28;20063;-70
2023/09/14 10:39:51;;;;;;;5.68;1.08;;;17.80;98.10;;;;;;5020417;28;20441;-71
2023/09/14 10:42:37;;;;;;;4.30;1.00;;;18.00;99.10;;;;;;4993022;28;20048;-71
2023/09/14 10:45:27;;;;;;;4.85;0.98;;;18.20;97.90;;;;;;4999462;28;20547;-71
2023/09/14 10:48:16;;;;;;;8.07;1.50;;;18.60;99.10;;;;;;5014454;28;20136;-71
2023/09/14 10:51:03;;;;;;;4.65;0.85;;;;;;;;;;5014929;28;20041;-71
2023/09/14 10:53:49;;;;;;;5.22;1.20;;;;;;;;;;4995267;28;20034;-71
2023/09/14 10:56:35;;;;;;;7.53;1.38;;;;;;;;;;5013770;28;20041;-71
2023/09/14 10:59:22;;;;;;;5.28;1.63;;;;;;;;;;5018727;28;20045;-71
2023/09/14 11:02:09;;;;;;;5.30;1.00;;;;;;;;;;5020352;28;20374;-71
2023/09/14 11:05:30;;;;;;;7.03;1.13;;;;;;;;;;5004945;28;20110;-71
2023/09/14 11:08:18;;;;;;;6.47;1.17;;;;;;;;;;5034224;28;20048;-71
2023/09/14 11:11:05;;;;;;;5.70;0.80;;;;;;;;;;5033420;28;20040;-72
2023/09/14 11:13:57;;;;;;;4.50;1.13;;;19.00;94.90;;;;;;5024883;28;20045;-72
2023/09/14 11:16:59;;;;;;;6.07;1.30;;;19.00;94.40;;;;;;5003333;28;20082;-71
2023/09/14 11:19:45;;;;;;;4.93;1.10;;;19.00;93.40;;;;;;4959803;28;20038;-72
2023/09/14 11:22:31;;;;;;;4.57;1.20;;;18.80;93.40;;;;;;5003606;28;20042;-72
2023/09/14 11:25:36;;;;;;;6.63;1.10;;;19.00;94.20;;;;;;4985434;28;20042;-72
2023/09/14 11:28:22;;;;;;;6.85;1.48;;;19.20;93.40;;;;;;4969418;28;20043;-72
2023/09/14 11:31:08;;;;;;;6.47;1.30;;;19.00;92.80;;;;;;4972950;28;20033;-72
2023/09/14 11:33:54;;;;;;;4.35;1.02;;;18.90;93.00;;;;;;4993254;28;20038;-72
2023/09/14 11:36:40;;;;;;;3.33;0.95;;;19.20;93.00;;;;;;4994850;28;20113;-72
2023/09/14 11:39:27;;;;;;;8.57;1.25;;;19.30;92.60;;;;;;4982540;28;20038;-72
2023/09/14 11:42:13;;;;;;;5.75;1.10;;;19.40;93.00;;;;;;4948225;28;20109;-72
2023/09/14 11:45:00;;;;;;;9.80;1.33;;;19.60;92.70;;;;;;4971289;28;20081;-72
2023/09/14 11:47:45;;;;;;;5.50;1.00;;;19.70;92.00;;;;;;5003411;28;20124;-72
2023/09/14 11:50:32;;;;;;;4.68;1.48;;;19.70;92.10;;;;;;4993800;28;20111;-72
2023/09/14 11:53:19;;;;;;;5.60;1.52;;;19.70;91.50;;;;;;4995494;28;20527;-72
2023/09/14 11:56:05;;;;;;;6.40;1.30;;;19.70;92.50;;;;;;4963428;28;20042;-72
2023/09/14 11:58:51;;;;;;;4.20;1.08;;;20.00;92.20;;;;;;4994402;28;20116;-73
2023/09/14 12:01:37;;;;;;;4.97;1.30;;;20.10;92.00;;;;;;4999111;28;20038;-73
2023/09/14 12:04:26;;;;;;;4.90;1.30;;;20.30;92.80;;;;;;4949237;28;20046;-74
2023/09/14 12:07:11;;;;;;;3.78;0.85;;;20.50;91.90;;;;;;4981611;28;20395;-73
2023/09/14 12:09:59;;;;;;;3.80;1.15;;;20.50;92.10;;;;;;4982330;28;20045;-73
2023/09/14 12:12:44;;;;;;;4.35;1.13;;;20.60;91.80;;;;;;4987694;28;20542;-73
2023/09/14 12:15:31;;;;;;;9.05;1.30;;;20.60;92.10;;;;;;4971043;28;20043;-73
2023/09/14 12:18:16;;;;;;;6.10;1.35;;;20.60;91.40;;;;;;4975186;28;20430;-74
2023/09/14 12:21:03;;;;;;;3.78;1.13;;;20.50;91.60;;;;;;4973325;28;20042;-75
2023/09/14 12:23:49;;;;;;;4.03;1.15;;;20.80;91.80;;;;;;4980771;28;20112;-73
2023/09/14 12:26:37;;;;;;;5.78;1.63;;;21.20;93.00;;;;;;4973987;28;20062;-73
2023/09/14 12:29:25;;;;;;;8.32;1.73;;;21.20;91.10;;;;;;5015441;28;20121;-74
2023/09/14 12:32:11;;;;;;;6.70;1.45;;;20.80;90.00;;;;;;4995864;28;20048;-73
2023/09/14 12:34:58;;;;;;;5.40;1.33;;;21.10;91.00;;;;;;4979977;28;20042;-73
2023/09/14 12:37:44;;;;;;;6.78;1.40;;;20.80;90.20;;;;;;4974835;28;20169;-73
2023/09/14 12:40:37;;;;;;;6.50;1.90;;;20.80;90.50;;;;;;4976678;28;20391;-73
2023/09/14 12:43:23;;;;;;;6.88;1.40;;;21.30;91.90;;;;;;4972270;28;20089;-73
2023/09/14 12:46:11;;;;;;;7.18;1.30;;;21.90;91.00;;;;;;4991180;28;20049;-74
2023/09/14 12:49:00;;;;;;;4.90;1.15;;;22.10;90.90;;;;;;5021865;28;20050;-73
2023/09/14 12:51:49;;;;;;;6.00;1.08;;;22.00;87.80;;;;;;4976111;28;20102;-73
2023/09/14 12:54:36;;;;;;;7.55;1.00;;;21.80;87.70;;;;;;4988780;28;20039;-73
2023/09/14 12:57:22;;;;;;;4.53;1.35;;;21.50;87.20;;;;;;4970154;28;20091;-73
2023/09/14 13:00:12;;;;;;;4.38;1.05;;;20.90;88.80;;;;;;4977257;28;20042;-73
2023/09/14 13:02:58;;;;;;;7.82;1.48;;;20.50;88.90;;;;;;4953661;28;20048;-72
2023/09/14 13:05:47;;;;;;;6.72;1.30;;;20.10;90.10;;;;;;4991491;28;20042;-73
2023/09/14 13:08:52;;;;;;;4.93;1.35;;;20.10;90.50;;;;;;4993575;28;20111;-73
2023/09/14 13:11:38;;;;;;;5.78;1.52;;;20.30;90.90;;;;;;4999380;28;20063;-74
2023/09/14 13:14:24;;;;;;;4.53;1.30;;;21.00;91.70;;;;;;4980837;28;20066;-74
2023/09/14 13:17:21;;;;;;;6.13;1.30;;;21.80;90.80;;;;;;4983086;28;20080;-74
2023/09/14 13:20:10;;;;;;;5.50;1.60;;;22.20;86.90;;;;;;5002805;28;20042;-74
2023/09/14 13:22:57;;;;;;;5.03;1.55;;;22.00;86.20;;;;;;5003619;28;20037;-73
2023/09/14 13:25:43;;;;;;;6.95;1.60;;;21.60;86.30;;;;;;5021236;28;20139;-73
2023/09/14 13:28:29;;;;;;;7.15;1.50;;;21.50;88.10;;;;;;5026320;28;20091;-71
2023/09/14 13:31:15;;;;;;;5.50;1.20;;;21.60;87.40;;;;;;5025166;28;20041;-70
2023/09/14 13:34:01;;;;;;;5.75;1.52;;;21.60;87.10;;;;;;5028118;28;20127;-70
2023/09/14 13:36:52;;;;;;;5.47;1.15;;;21.80;86.00;;;;;;5011460;28;20034;-70
2023/09/14 13:39:39;;;;;;;9.15;1.35;;;21.70;85.20;;;;;;5012080;28;20409;-70
2023/09/14 13:42:25;;;;;;;5.00;1.52;;;22.20;86.20;;;;;;5003762;28;20046;-70
2023/09/14 13:45:11;;;;;;;5.50;1.35;;;22.50;84.30;;;;;;5002203;28;20053;-71
2023/09/14 13:47:57;;;;;;;5.30;1.60;;;22.90;86.00;;;;;;5010742;28;20070;-70
2023/09/14 13:50:43;;;;;;;5.03;1.30;;;22.80;83.90;;;;;;5023934;28;20053;-70
2023/09/14 13:53:29;;;;;;;7.35;1.50;;;22.30;84.50;;;;;;5035572;28;20041;-70
2023/09/14 13:56:15;;;;;;;2.97;1.40;;;23.10;86.70;;;;;;5002921;28;20041;-71
2023/09/14 13:59:01;;;;;;;3.88;1.50;;;23.60;84.60;;;;;;5004795;28;20041;-70
2023/09/14 14:01:47;;;;;;;2.78;1.10;;;24.00;83.50;;;;;;5010620;28;20502;-70
2023/09/14 14:04:33;;;;;;;7.03;1.20;;;24.00;83.90;;;;;;5036249;28;20257;-71
2023/09/14 14:07:19;;;;;;;6.28;1.58;;;24.00;82.50;;;;;;5005782;28;20042;-70
2023/09/14 14:10:05;;;;;;;5.30;1.30;;;24.30;82.70;;;;;;5016533;28;20519;-70
2023/09/14 14:12:51;;;;;;;5.05;1.13;;;24.50;81.40;;;;;;5029949;28;20037;-71
2023/09/14 14:15:37;;;;;;;5.07;1.45;;;24.50;83.00;;;;;;5022587;28;20071;-71
2023/09/14 14:18:25;;;;;;;6.35;1.40;;;24.50;83.00;;;;;;5021620;28;20058;-71
2023/09/14 14:21:11;;;;;;;5.38;1.30;;;24.30;82.90;;;;;;5027844;28;20037;-71
2023/09/14 14:23:57;;;;;;;5.07;1.33;;;24.30;82.80;;;;;;5031372;28;20056;-70
2023/09/14 14:26:43;;;;;;;6.30;1.13;;;23.80;82.10;;;;;;5031589;28;20107;-70
2023/09/14 14:29:29;;;;;;;4.97;1.63;;;22.60;80.60;;;;;;5012865;28;20484;-70